עמוד ראשי
METAR-TAF:

METAR-TAF

שדות תעופה :

San Pedro Sula, הונדורס

קו רוחב: 15-27N, קו אורך: 087-56W, גובה: 31מטר

תצפית מזג אוויר נוכחית

הדו"ח נערך לפני 1 שעות ו 1דקות, בשעה 21:00 UTC
רוח 8קשר מכיוון מזרח
טמפרטורת 31 צלסיוס
לחות 71%
לחץ 1010 hPa
ראות 10 קילומטר או יותר
מעט עננים בגובה 3000רגל
מעט עננים בגובה 3200רגל , קומולונימבוס.

METAR: MHLM 252100Z 09008KT 9999 FEW030 FEW032CB 31/25 Q1010 A2983 NOSIG

זמן: 16:01 (22:01 UTC)

תחזית

הדו"ח נערך לפני 5 שעות ו 1דקות, בשעה 17:00 UTC
תחזית בתוקף מ 25 ב 18 UTC עד 26 ב 18 UTC
רוח 10קשר מכיוון מזרח/צפון-מזרח
ראות 10 קילומטר או יותר
עננים פזורים בגובה 3000רגל
זמנית מ -
25 ב 21 UTC עד 26 ב 03 UTC
ראות: 5000מטר
עננים פזורים בגובה 3000רגל , קומולוס מיגדלי.
מעט עננים בגובה 3200רגל , קומולונימבוס.
מ 26 ב 0100UTC
רוח 5קשר עם כיוונים משתנים
ראות 10 קילומטר או יותר
עננים פזורים בגובה 2600רגל

TAF: MHLM 251700Z 2518/2618 06010KT 9999 SCT030 TX32/2520Z TN24/2612Z TEMPO 2521/2603 5000 TSSHRA SCT030TCU FEW032CB FM260100 VRB05KT 9999 NSW SCT026

תצפיות ותחזיות מזג אוויר לגבי יותר מ- 4,000 שדות תעופה ברחבי העולם. דוחות METAR ו- TAF.

התחנות הזמינות מסומנות בנקודות צהובות ואדומות על גבי המפה.

העבר את העכבר לנקודה הצבעונית על מנת לראות את שם התחנה.

לאחר מכן, לחץ כדי לראות את תוכן ואת תחזיות מזג האוויר.

כדי לשנות את המפה: לחץ על הכפתורים הירוקים עם הפלוס השחור כדי להתקרב; על הכפתור הירוק עם המקף כדי להתרחק; או בחיצים הירוקים למפות סמוכות.


METAR-TAF: